sensor_id;sensor_type;location;lat;lon;timestamp;pressure;altitude;pressure_sealevel;temperature;humidity
10115;BME280;5097;43.260;27.812;2023-05-14T00:00:33;100894.44;;;10.53;64.46
10115;BME280;5097;43.260;27.812;2023-05-14T00:03:17;100894.66;;;10.47;64.61
10115;BME280;5097;43.260;27.812;2023-05-14T00:06:01;100894.34;;;10.33;64.26
10115;BME280;5097;43.260;27.812;2023-05-14T00:08:45;100872.50;;;10.05;64.80
10115;BME280;5097;43.260;27.812;2023-05-14T00:11:29;100898.22;;;10.00;65.07
10115;BME280;5097;43.260;27.812;2023-05-14T00:14:14;100900.56;;;10.08;64.40
10115;BME280;5097;43.260;27.812;2023-05-14T00:16:58;100903.28;;;10.06;64.05
10115;BME280;5097;43.260;27.812;2023-05-14T00:19:42;100876.53;;;9.68;64.11
10115;BME280;5097;43.260;27.812;2023-05-14T00:22:27;100899.66;;;9.85;63.84
10115;BME280;5097;43.260;27.812;2023-05-14T00:25:10;100908.78;;;10.00;63.60
10115;BME280;5097;43.260;27.812;2023-05-14T00:27:54;100910.72;;;9.95;62.93
10115;BME280;5097;43.260;27.812;2023-05-14T00:30:40;100914.53;;;9.88;63.05
10115;BME280;5097;43.260;27.812;2023-05-14T00:33:24;100919.13;;;10.06;62.86
10115;BME280;5097;43.260;27.812;2023-05-14T00:36:08;100913.72;;;10.10;62.85
10115;BME280;5097;43.260;27.812;2023-05-14T00:38:52;100906.53;;;10.13;63.34
10115;BME280;5097;43.260;27.812;2023-05-14T00:41:36;100918.50;;;10.22;63.93
10115;BME280;5097;43.260;27.812;2023-05-14T00:44:20;100907.72;;;10.28;63.40
10115;BME280;5097;43.260;27.812;2023-05-14T00:47:06;100902.78;;;10.19;63.40
10115;BME280;5097;43.260;27.812;2023-05-14T00:49:50;100912.16;;;10.28;63.54
10115;BME280;5097;43.260;27.812;2023-05-14T00:52:35;100772.09;;;9.41;63.22
10115;BME280;5097;43.260;27.812;2023-05-14T00:55:20;100912.09;;;10.05;64.49
10115;BME280;5097;43.260;27.812;2023-05-14T00:58:06;100901.41;;;9.86;64.71
10115;BME280;5097;43.260;27.812;2023-05-14T01:00:51;100915.84;;;9.76;65.56
10115;BME280;5097;43.260;27.812;2023-05-14T01:03:38;100911.31;;;9.80;65.29
10115;BME280;5097;43.260;27.812;2023-05-14T01:06:27;100916.41;;;9.84;64.46
10115;BME280;5097;43.260;27.812;2023-05-14T01:09:17;100913.34;;;9.97;63.34
10115;BME280;5097;43.260;27.812;2023-05-14T01:12:10;100905.75;;;9.87;62.02
10115;BME280;5097;43.260;27.812;2023-05-14T01:15:01;100893.41;;;9.88;61.31
10115;BME280;5097;43.260;27.812;2023-05-14T01:17:51;100898.06;;;9.81;61.21
10115;BME280;5097;43.260;27.812;2023-05-14T01:20:37;100876.09;;;9.81;61.16
10115;BME280;5097;43.260;27.812;2023-05-14T01:23:24;100884.72;;;10.08;60.37
10115;BME280;5097;43.260;27.812;2023-05-14T01:26:08;100887.22;;;10.13;59.94
10115;BME280;5097;43.260;27.812;2023-05-14T01:28:53;100887.56;;;10.26;59.73
10115;BME280;5097;43.260;27.812;2023-05-14T01:31:39;100868.69;;;9.90;59.54
10115;BME280;5097;43.260;27.812;2023-05-14T01:34:27;100890.06;;;10.06;59.31
10115;BME280;5097;43.260;27.812;2023-05-14T01:37:17;100859.03;;;9.89;59.05
10115;BME280;5097;43.260;27.812;2023-05-14T01:40:04;100894.19;;;10.14;59.68
10115;BME280;5097;43.260;27.812;2023-05-14T01:42:49;100887.75;;;10.21;57.48
10115;BME280;5097;43.260;27.812;2023-05-14T01:45:34;100876.88;;;10.29;57.21
10115;BME280;5097;43.260;27.812;2023-05-14T01:48:18;100889.66;;;10.17;56.93
10115;BME280;5097;43.260;27.812;2023-05-14T01:51:03;100880.88;;;10.17;57.11
10115;BME280;5097;43.260;27.812;2023-05-14T01:53:50;100877.44;;;10.15;56.84
10115;BME280;5097;43.260;27.812;2023-05-14T01:56:36;100883.97;;;10.04;56.08
10115;BME280;5097;43.260;27.812;2023-05-14T01:59:22;100885.03;;;10.00;56.09
10115;BME280;5097;43.260;27.812;2023-05-14T02:02:06;100879.31;;;10.11;56.16
10115;BME280;5097;43.260;27.812;2023-05-14T02:04:50;100883.94;;;10.06;56.53
10115;BME280;5097;43.260;27.812;2023-05-14T02:07:34;100877.00;;;10.03;56.56
10115;BME280;5097;43.260;27.812;2023-05-14T02:10:18;100880.44;;;10.05;56.63
10115;BME280;5097;43.260;27.812;2023-05-14T02:13:07;100880.75;;;10.20;56.64
10115;BME280;5097;43.260;27.812;2023-05-14T02:15:52;100887.72;;;10.45;56.68
10115;BME280;5097;43.260;27.812;2023-05-14T02:18:36;100887.34;;;10.54;56.45
10115;BME280;5097;43.260;27.812;2023-05-14T02:21:21;100890.56;;;10.62;56.90
10115;BME280;5097;43.260;27.812;2023-05-14T02:24:05;100891.94;;;10.49;58.10
10115;BME280;5097;43.260;27.812;2023-05-14T02:26:49;100883.63;;;10.37;58.30
10115;BME280;5097;43.260;27.812;2023-05-14T02:29:35;100891.72;;;10.33;58.20
10115;BME280;5097;43.260;27.812;2023-05-14T02:32:19;100896.72;;;10.17;58.95
10115;BME280;5097;43.260;27.812;2023-05-14T02:35:04;100883.88;;;10.07;59.65
10115;BME280;5097;43.260;27.812;2023-05-14T02:37:49;100906.19;;;9.75;61.21
10115;BME280;5097;43.260;27.812;2023-05-14T02:40:35;100872.31;;;9.64;61.59
10115;BME280;5097;43.260;27.812;2023-05-14T02:43:19;100906.69;;;10.09;61.46
10115;BME280;5097;43.260;27.812;2023-05-14T02:46:05;100902.88;;;9.94;61.70
10115;BME280;5097;43.260;27.812;2023-05-14T02:48:49;100910.81;;;9.70;62.21
10115;BME280;5097;43.260;27.812;2023-05-14T02:51:33;100911.81;;;9.42;62.34
10115;BME280;5097;43.260;27.812;2023-05-14T02:54:17;100912.19;;;9.56;62.24
10115;BME280;5097;43.260;27.812;2023-05-14T02:57:01;100899.72;;;9.36;62.37
10115;BME280;5097;43.260;27.812;2023-05-14T02:59:45;100907.47;;;9.65;61.73
10115;BME280;5097;43.260;27.812;2023-05-14T03:02:31;100919.94;;;9.85;60.90
10115;BME280;5097;43.260;27.812;2023-05-14T03:05:15;100922.50;;;10.32;59.98
10115;BME280;5097;43.260;27.812;2023-05-14T03:07:59;100921.28;;;10.43;58.98
10115;BME280;5097;43.260;27.812;2023-05-14T03:10:43;100917.09;;;10.59;58.33
10115;BME280;5097;43.260;27.812;2023-05-14T03:13:27;100929.31;;;11.04;57.31
10115;BME280;5097;43.260;27.812;2023-05-14T03:16:11;100926.75;;;11.03;57.96
10115;BME280;5097;43.260;27.812;2023-05-14T03:18:57;100924.84;;;11.06;57.95
10115;BME280;5097;43.260;27.812;2023-05-14T03:21:41;100922.84;;;11.32;57.61
10115;BME280;5097;43.260;27.812;2023-05-14T03:24:25;100888.88;;;11.02;56.80
10115;BME280;5097;43.260;27.812;2023-05-14T03:27:10;100918.81;;;11.23;56.81
10115;BME280;5097;43.260;27.812;2023-05-14T03:29:54;100886.22;;;10.82;56.84
10115;BME280;5097;43.260;27.812;2023-05-14T03:32:38;100912.50;;;10.85;57.89
10115;BME280;5097;43.260;27.812;2023-05-14T03:35:24;100922.44;;;10.80;58.56
10115;BME280;5097;43.260;27.812;2023-05-14T03:38:08;100943.97;;;10.91;58.42
10115;BME280;5097;43.260;27.812;2023-05-14T03:40:52;100936.59;;;10.99;57.67
10115;BME280;5097;43.260;27.812;2023-05-14T03:43:36;100926.16;;;11.17;56.51
10115;BME280;5097;43.260;27.812;2023-05-14T03:46:20;100921.09;;;11.72;54.31
10115;BME280;5097;43.260;27.812;2023-05-14T03:49:05;100918.56;;;12.09;53.52
10115;BME280;5097;43.260;27.812;2023-05-14T03:51:50;100924.50;;;11.95;53.70
10115;BME280;5097;43.260;27.812;2023-05-14T03:54:34;100927.66;;;12.22;52.88
10115;BME280;5097;43.260;27.812;2023-05-14T03:57:20;100919.09;;;12.35;52.29
10115;BME280;5097;43.260;27.812;2023-05-14T04:00:05;100933.59;;;12.64;51.45
10115;BME280;5097;43.260;27.812;2023-05-14T04:02:58;100943.91;;;12.70;50.93
10115;BME280;5097;43.260;27.812;2023-05-14T04:05:43;100934.25;;;12.87;49.83
10115;BME280;5097;43.260;27.812;2023-05-14T04:08:29;100943.97;;;13.40;49.15
10115;BME280;5097;43.260;27.812;2023-05-14T04:11:14;100941.75;;;13.66;48.21
10115;BME280;5097;43.260;27.812;2023-05-14T04:13:59;100946.28;;;14.14;47.69
10115;BME280;5097;43.260;27.812;2023-05-14T04:16:43;100938.06;;;14.34;46.00
10115;BME280;5097;43.260;27.812;2023-05-14T04:19:27;100938.06;;;14.66;45.82
10115;BME280;5097;43.260;27.812;2023-05-14T04:22:11;100938.06;;;14.66;43.85
10115;BME280;5097;43.260;27.812;2023-05-14T04:24:57;100930.91;;;14.83;44.49
10115;BME280;5097;43.260;27.812;2023-05-14T04:27:41;100932.19;;;15.22;44.95
10115;BME280;5097;43.260;27.812;2023-05-14T04:30:25;100935.84;;;15.64;43.92
10115;BME280;5097;43.260;27.812;2023-05-14T04:33:09;100936.97;;;16.18;43.47
10115;BME280;5097;43.260;27.812;2023-05-14T04:35:53;100924.63;;;16.17;44.44
10115;BME280;5097;43.260;27.812;2023-05-14T04:38:37;100946.59;;;16.62;45.84
10115;BME280;5097;43.260;27.812;2023-05-14T04:41:23;100939.69;;;16.72;44.57
10115;BME280;5097;43.260;27.812;2023-05-14T04:44:06;100948.03;;;16.81;45.71
10115;BME280;5097;43.260;27.812;2023-05-14T04:46:50;100936.44;;;16.54;49.01
10115;BME280;5097;43.260;27.812;2023-05-14T04:49:34;100942.72;;;16.53;49.33
10115;BME280;5097;43.260;27.812;2023-05-14T04:52:19;100943.34;;;16.30;50.79
10115;BME280;5097;43.260;27.812;2023-05-14T04:55:03;100938.69;;;16.19;52.26
10115;BME280;5097;43.260;27.812;2023-05-14T04:57:49;100932.75;;;16.01;53.56
10115;BME280;5097;43.260;27.812;2023-05-14T05:00:33;100933.69;;;15.85;53.78
10115;BME280;5097;43.260;27.812;2023-05-14T05:03:17;100946.91;;;16.01;53.80
10115;BME280;5097;43.260;27.812;2023-05-14T05:06:01;100943.00;;;15.92;53.46
10115;BME280;5097;43.260;27.812;2023-05-14T05:08:45;100938.91;;;16.01;53.19
10115;BME280;5097;43.260;27.812;2023-05-14T05:11:29;100933.38;;;16.04;52.95
10115;BME280;5097;43.260;27.812;2023-05-14T05:14:15;100938.91;;;16.01;53.10
10115;BME280;5097;43.260;27.812;2023-05-14T05:16:59;100948.81;;;15.99;52.98
10115;BME280;5097;43.260;27.812;2023-05-14T05:19:44;100952.81;;;15.92;53.06
10115;BME280;5097;43.260;27.812;2023-05-14T05:22:28;100937.97;;;16.02;52.24
10115;BME280;5097;43.260;27.812;2023-05-14T05:25:12;100931.50;;;15.92;51.84
10115;BME280;5097;43.260;27.812;2023-05-14T05:27:56;100931.97;;;16.13;49.95
10115;BME280;5097;43.260;27.812;2023-05-14T05:30:41;100934.53;;;16.15;49.41
10115;BME280;5097;43.260;27.812;2023-05-14T05:33:26;100930.91;;;16.16;47.46
10115;BME280;5097;43.260;27.812;2023-05-14T05:36:11;100934.41;;;16.31;48.29
10115;BME280;5097;43.260;27.812;2023-05-14T05:38:55;100940.78;;;16.28;48.14
10115;BME280;5097;43.260;27.812;2023-05-14T05:41:38;100910.88;;;16.23;48.40
10115;BME280;5097;43.260;27.812;2023-05-14T05:44:23;100942.81;;;16.52;48.25
10115;BME280;5097;43.260;27.812;2023-05-14T05:47:08;100945.53;;;16.37;48.93
10115;BME280;5097;43.260;27.812;2023-05-14T05:49:53;100941.31;;;16.48;49.21
10115;BME280;5097;43.260;27.812;2023-05-14T05:52:37;100946.09;;;16.42;50.11
10115;BME280;5097;43.260;27.812;2023-05-14T05:55:21;100946.72;;;16.46;49.49
10115;BME280;5097;43.260;27.812;2023-05-14T05:58:06;100939.97;;;16.40;49.76
10115;BME280;5097;43.260;27.812;2023-05-14T06:00:50;100934.28;;;16.59;49.38
10115;BME280;5097;43.260;27.812;2023-05-14T06:03:36;100907.63;;;16.59;48.71
10115;BME280;5097;43.260;27.812;2023-05-14T06:06:20;100917.06;;;16.65;49.10
10115;BME280;5097;43.260;27.812;2023-05-14T06:09:04;100946.13;;;16.83;49.76
10115;BME280;5097;43.260;27.812;2023-05-14T06:11:50;100947.50;;;17.03;50.00
10115;BME280;5097;43.260;27.812;2023-05-14T06:14:34;100946.44;;;17.05;49.61
10115;BME280;5097;43.260;27.812;2023-05-14T06:17:18;100949.13;;;17.05;49.18
10115;BME280;5097;43.260;27.812;2023-05-14T06:20:05;100941.56;;;17.25;48.87
10115;BME280;5097;43.260;27.812;2023-05-14T06:22:50;100947.75;;;17.38;48.92
10115;BME280;5097;43.260;27.812;2023-05-14T06:25:34;100944.56;;;17.46;48.20
10115;BME280;5097;43.260;27.812;2023-05-14T06:28:19;100934.94;;;17.69;47.47
10115;BME280;5097;43.260;27.812;2023-05-14T06:31:03;100940.50;;;17.66;47.85
10115;BME280;5097;43.260;27.812;2023-05-14T06:33:47;100925.75;;;17.48;47.34
10115;BME280;5097;43.260;27.812;2023-05-14T06:36:32;100943.72;;;17.97;47.24
10115;BME280;5097;43.260;27.812;2023-05-14T06:39:16;100949.66;;;18.14;46.60
10115;BME280;5097;43.260;27.812;2023-05-14T06:42:00;100947.50;;;18.32;45.45
10115;BME280;5097;43.260;27.812;2023-05-14T06:44:45;100931.53;;;17.93;44.38
10115;BME280;5097;43.260;27.812;2023-05-14T06:47:29;100938.16;;;17.87;44.26
10115;BME280;5097;43.260;27.812;2023-05-14T06:50:13;100951.75;;;18.34;43.76
10115;BME280;5097;43.260;27.812;2023-05-14T06:52:58;100949.00;;;18.23;43.89
10115;BME280;5097;43.260;27.812;2023-05-14T06:55:42;100959.81;;;18.21;43.08
10115;BME280;5097;43.260;27.812;2023-05-14T06:58:26;100931.03;;;18.25;42.80
10115;BME280;5097;43.260;27.812;2023-05-14T07:01:10;100946.38;;;18.47;40.98
10115;BME280;5097;43.260;27.812;2023-05-14T07:03:55;100928.88;;;18.30;39.83
10115;BME280;5097;43.260;27.812;2023-05-14T07:06:39;100956.78;;;18.63;38.97
10115;BME280;5097;43.260;27.812;2023-05-14T07:09:24;100970.66;;;18.44;39.94
10115;BME280;5097;43.260;27.812;2023-05-14T07:12:08;100956.00;;;18.74;39.40
10115;BME280;5097;43.260;27.812;2023-05-14T07:14:53;100963.75;;;18.90;38.57
10115;BME280;5097;43.260;27.812;2023-05-14T07:17:38;100953.25;;;18.87;39.75
10115;BME280;5097;43.260;27.812;2023-05-14T07:20:22;100964.06;;;18.98;38.29
10115;BME280;5097;43.260;27.812;2023-05-14T07:23:07;100966.75;;;18.98;36.65
10115;BME280;5097;43.260;27.812;2023-05-14T07:25:52;100945.16;;;19.24;37.31
10115;BME280;5097;43.260;27.812;2023-05-14T07:28:36;100977.03;;;19.16;36.42
10115;BME280;5097;43.260;27.812;2023-05-14T07:31:20;100978.44;;;19.44;35.88
10115;BME280;5097;43.260;27.812;2023-05-14T07:34:04;100989.50;;;19.39;36.76
10115;BME280;5097;43.260;27.812;2023-05-14T07:36:49;100980.06;;;19.69;34.66
10115;BME280;5097;43.260;27.812;2023-05-14T07:39:33;100965.72;;;19.82;34.31
10115;BME280;5097;43.260;27.812;2023-05-14T07:42:19;100970.84;;;19.96;34.24
10115;BME280;5097;43.260;27.812;2023-05-14T07:45:17;100962.81;;;19.26;35.16
10115;BME280;5097;43.260;27.812;2023-05-14T07:48:01;100971.16;;;19.69;35.84
10115;BME280;5097;43.260;27.812;2023-05-14T07:50:47;100966.41;;;19.72;34.42
10115;BME280;5097;43.260;27.812;2023-05-14T07:53:31;100971.56;;;20.21;33.08
10115;BME280;5097;43.260;27.812;2023-05-14T07:56:15;100983.94;;;20.67;32.57
10115;BME280;5097;43.260;27.812;2023-05-14T07:59:00;100991.13;;;20.78;33.46
10115;BME280;5097;43.260;27.812;2023-05-14T08:01:44;100976.19;;;20.85;32.91
10115;BME280;5097;43.260;27.812;2023-05-14T08:04:28;100981.56;;;20.85;32.45
10115;BME280;5097;43.260;27.812;2023-05-14T08:07:12;100985.16;;;20.74;32.81
10115;BME280;5097;43.260;27.812;2023-05-14T08:09:56;100981.41;;;20.98;33.61
10115;BME280;5097;43.260;27.812;2023-05-14T08:12:40;100992.50;;;20.72;32.23
10115;BME280;5097;43.260;27.812;2023-05-14T08:15:26;100997.00;;;21.04;32.35
10115;BME280;5097;43.260;27.812;2023-05-14T08:18:10;100998.81;;;21.15;32.79
10115;BME280;5097;43.260;27.812;2023-05-14T08:20:55;100989.44;;;21.52;31.78
10115;BME280;5097;43.260;27.812;2023-05-14T08:23:39;100978.47;;;21.01;30.98
10115;BME280;5097;43.260;27.812;2023-05-14T08:26:23;100976.03;;;21.73;34.30
10115;BME280;5097;43.260;27.812;2023-05-14T08:29:07;100955.00;;;21.46;31.97
10115;BME280;5097;43.260;27.812;2023-05-14T08:31:55;100978.44;;;21.55;31.58
10115;BME280;5097;43.260;27.812;2023-05-14T08:34:41;100967.88;;;21.94;32.08
10115;BME280;5097;43.260;27.812;2023-05-14T08:37:25;100959.28;;;21.69;32.09
10115;BME280;5097;43.260;27.812;2023-05-14T08:40:10;100964.63;;;22.31;31.03
10115;BME280;5097;43.260;27.812;2023-05-14T08:42:55;100953.91;;;22.41;30.22
10115;BME280;5097;43.260;27.812;2023-05-14T08:45:40;100955.53;;;22.22;31.67
10115;BME280;5097;43.260;27.812;2023-05-14T08:48:28;100948.47;;;22.21;30.87
10115;BME280;5097;43.260;27.812;2023-05-14T08:51:15;100950.56;;;21.14;31.53
10115;BME280;5097;43.260;27.812;2023-05-14T08:53:59;100949.31;;;21.81;32.68
10115;BME280;5097;43.260;27.812;2023-05-14T08:56:45;100945.75;;;21.81;32.86
10115;BME280;5097;43.260;27.812;2023-05-14T08:59:32;100961.38;;;21.02;31.65
10115;BME280;5097;43.260;27.812;2023-05-14T09:02:18;100957.56;;;21.68;32.18
10115;BME280;5097;43.260;27.812;2023-05-14T09:05:05;100961.53;;;21.64;32.00
10115;BME280;5097;43.260;27.812;2023-05-14T09:07:50;100954.78;;;21.49;31.54
10115;BME280;5097;43.260;27.812;2023-05-14T09:10:35;100954.78;;;21.49;33.49
10115;BME280;5097;43.260;27.812;2023-05-14T09:13:19;100953.41;;;21.85;31.70
10115;BME280;5097;43.260;27.812;2023-05-14T09:16:03;100959.56;;;21.66;31.69
10115;BME280;5097;43.260;27.812;2023-05-14T09:18:47;100952.13;;;21.37;32.84
10115;BME280;5097;43.260;27.812;2023-05-14T09:21:34;100953.00;;;21.59;31.88
10115;BME280;5097;43.260;27.812;2023-05-14T09:24:18;100953.47;;;21.64;32.45
10115;BME280;5097;43.260;27.812;2023-05-14T09:27:04;100949.59;;;21.57;32.06
10115;BME280;5097;43.260;27.812;2023-05-14T09:29:48;100943.50;;;21.86;31.56
10115;BME280;5097;43.260;27.812;2023-05-14T09:32:38;100945.38;;;21.95;31.16
10115;BME280;5097;43.260;27.812;2023-05-14T09:35:23;100940.78;;;22.17;31.01
10115;BME280;5097;43.260;27.812;2023-05-14T09:38:10;100944.69;;;22.43;29.53
10115;BME280;5097;43.260;27.812;2023-05-14T09:40:54;100965.28;;;21.83;30.22
10115;BME280;5097;43.260;27.812;2023-05-14T09:43:38;100958.34;;;22.21;29.98
10115;BME280;5097;43.260;27.812;2023-05-14T09:46:22;100962.94;;;21.89;29.92
10115;BME280;5097;43.260;27.812;2023-05-14T09:49:11;100976.84;;;22.35;29.18
10115;BME280;5097;43.260;27.812;2023-05-14T09:51:56;100960.81;;;22.34;29.95
10115;BME280;5097;43.260;27.812;2023-05-14T09:54:42;100953.25;;;22.88;28.89
10115;BME280;5097;43.260;27.812;2023-05-14T09:57:26;100962.06;;;22.20;29.43
10115;BME280;5097;43.260;27.812;2023-05-14T10:00:11;100954.66;;;23.21;29.36
10115;BME280;5097;43.260;27.812;2023-05-14T10:02:57;100958.47;;;23.38;29.12
10115;BME280;5097;43.260;27.812;2023-05-14T10:05:41;100957.97;;;23.15;28.49
10115;BME280;5097;43.260;27.812;2023-05-14T10:08:29;100957.06;;;23.34;29.57
10115;BME280;5097;43.260;27.812;2023-05-14T10:11:18;100954.28;;;23.16;28.42
10115;BME280;5097;43.260;27.812;2023-05-14T10:14:07;100946.75;;;22.20;30.26
10115;BME280;5097;43.260;27.812;2023-05-14T10:16:52;100954.13;;;23.18;29.43
10115;BME280;5097;43.260;27.812;2023-05-14T10:19:37;100938.91;;;22.58;28.92
10115;BME280;5097;43.260;27.812;2023-05-14T10:22:24;100965.88;;;22.77;29.77
10115;BME280;5097;43.260;27.812;2023-05-14T10:25:10;100956.81;;;23.27;29.09
10115;BME280;5097;43.260;27.812;2023-05-14T10:27:55;100949.16;;;21.83;30.81
10115;BME280;5097;43.260;27.812;2023-05-14T10:30:43;100943.72;;;22.35;31.24
10115;BME280;5097;43.260;27.812;2023-05-14T10:33:27;100944.19;;;22.79;30.24
10115;BME280;5097;43.260;27.812;2023-05-14T10:36:11;100945.50;;;21.41;31.12
10115;BME280;5097;43.260;27.812;2023-05-14T10:38:55;100932.16;;;22.23;30.09
10115;BME280;5097;43.260;27.812;2023-05-14T10:41:40;100948.88;;;23.26;29.54
10115;BME280;5097;43.260;27.812;2023-05-14T10:44:27;100950.16;;;23.69;28.78
10115;BME280;5097;43.260;27.812;2023-05-14T10:47:11;100955.16;;;24.12;28.59
10115;BME280;5097;43.260;27.812;2023-05-14T10:49:57;100948.25;;;23.42;28.44
10115;BME280;5097;43.260;27.812;2023-05-14T10:52:42;100955.97;;;23.27;29.32
10115;BME280;5097;43.260;27.812;2023-05-14T10:55:26;100955.59;;;23.59;28.75
10115;BME280;5097;43.260;27.812;2023-05-14T10:58:11;100948.69;;;23.85;29.08
10115;BME280;5097;43.260;27.812;2023-05-14T11:00:56;100958.78;;;23.16;30.34
10115;BME280;5097;43.260;27.812;2023-05-14T11:03:41;100944.88;;;22.71;31.09
10115;BME280;5097;43.260;27.812;2023-05-14T11:06:27;100957.34;;;23.41;29.58
10115;BME280;5097;43.260;27.812;2023-05-14T11:09:16;100953.13;;;23.19;30.23
10115;BME280;5097;43.260;27.812;2023-05-14T11:12:00;100961.91;;;23.40;29.80
10115;BME280;5097;43.260;27.812;2023-05-14T11:14:44;100947.78;;;23.66;30.03
10115;BME280;5097;43.260;27.812;2023-05-14T11:17:31;100945.88;;;23.09;29.93
10115;BME280;5097;43.260;27.812;2023-05-14T11:20:15;100937.28;;;23.53;30.04
10115;BME280;5097;43.260;27.812;2023-05-14T11:23:00;100947.19;;;23.15;30.02
10115;BME280;5097;43.260;27.812;2023-05-14T11:25:44;100940.50;;;22.80;29.40
10115;BME280;5097;43.260;27.812;2023-05-14T11:28:28;100927.75;;;22.22;30.58
10115;BME280;5097;43.260;27.812;2023-05-14T11:31:13;100898.59;;;23.45;29.24
10115;BME280;5097;43.260;27.812;2023-05-14T11:33:58;100916.63;;;24.37;28.05
10115;BME280;5097;43.260;27.812;2023-05-14T11:36:42;100919.38;;;22.66;29.96
10115;BME280;5097;43.260;27.812;2023-05-14T11:39:26;100906.31;;;22.90;29.80
10115;BME280;5097;43.260;27.812;2023-05-14T11:42:11;100892.28;;;23.64;28.76
10115;BME280;5097;43.260;27.812;2023-05-14T11:44:56;100891.38;;;23.73;28.79
10115;BME280;5097;43.260;27.812;2023-05-14T11:47:40;100885.13;;;24.28;28.18
10115;BME280;5097;43.260;27.812;2023-05-14T11:50:26;100867.72;;;23.00;29.08
10115;BME280;5097;43.260;27.812;2023-05-14T11:53:09;100873.53;;;23.62;29.09
10115;BME280;5097;43.260;27.812;2023-05-14T11:55:53;100866.34;;;22.56;29.65
10115;BME280;5097;43.260;27.812;2023-05-14T11:58:39;100857.94;;;22.30;30.27
10115;BME280;5097;43.260;27.812;2023-05-14T12:01:23;100844.34;;;22.12;31.23
10115;BME280;5097;43.260;27.812;2023-05-14T12:04:07;100842.53;;;22.42;30.08
10115;BME280;5097;43.260;27.812;2023-05-14T12:06:52;100836.84;;;23.14;28.90
10115;BME280;5097;43.260;27.812;2023-05-14T12:09:38;100836.50;;;21.99;30.95
10115;BME280;5097;43.260;27.812;2023-05-14T12:12:25;100830.00;;;23.09;29.35
10115;BME280;5097;43.260;27.812;2023-05-14T12:15:10;100828.09;;;22.72;29.67
10115;BME280;5097;43.260;27.812;2023-05-14T12:17:55;100839.88;;;21.20;31.23
10115;BME280;5097;43.260;27.812;2023-05-14T12:20:39;100827.75;;;22.17;30.48
10115;BME280;5097;43.260;27.812;2023-05-14T12:23:30;100829.09;;;20.89;31.62
10115;BME280;5097;43.260;27.812;2023-05-14T12:26:15;100816.69;;;22.10;31.00
10115;BME280;5097;43.260;27.812;2023-05-14T12:28:59;100820.72;;;22.65;29.41
10115;BME280;5097;43.260;27.812;2023-05-14T12:31:44;100822.44;;;22.36;30.19
10115;BME280;5097;43.260;27.812;2023-05-14T12:34:29;100821.94;;;21.51;31.61
10115;BME280;5097;43.260;27.812;2023-05-14T12:37:13;100825.81;;;20.85;32.74
10115;BME280;5097;43.260;27.812;2023-05-14T12:39:58;100838.16;;;21.81;32.14
10115;BME280;5097;43.260;27.812;2023-05-14T12:42:42;100826.63;;;22.98;30.46
10115;BME280;5097;43.260;27.812;2023-05-14T12:45:26;100828.88;;;23.12;29.94
10115;BME280;5097;43.260;27.812;2023-05-14T12:48:10;100791.13;;;22.45;30.50
10115;BME280;5097;43.260;27.812;2023-05-14T12:50:55;100829.94;;;23.29;29.48
10115;BME280;5097;43.260;27.812;2023-05-14T12:53:39;100835.13;;;23.03;29.91
10115;BME280;5097;43.260;27.812;2023-05-14T12:56:24;100824.28;;;23.88;28.06
10115;BME280;5097;43.260;27.812;2023-05-14T12:59:09;100808.50;;;23.65;28.64
10115;BME280;5097;43.260;27.812;2023-05-14T13:01:53;100807.84;;;24.09;27.59
10115;BME280;5097;43.260;27.812;2023-05-14T13:04:37;100820.91;;;23.86;28.24
10115;BME280;5097;43.260;27.812;2023-05-14T13:07:23;100833.00;;;23.54;28.83
10115;BME280;5097;43.260;27.812;2023-05-14T13:10:07;100793.47;;;21.80;30.47
10115;BME280;5097;43.260;27.812;2023-05-14T13:12:53;100820.41;;;22.68;31.12
10115;BME280;5097;43.260;27.812;2023-05-14T13:15:37;100785.59;;;22.47;29.84
10115;BME280;5097;43.260;27.812;2023-05-14T13:18:21;100797.88;;;22.79;29.13
10115;BME280;5097;43.260;27.812;2023-05-14T13:21:07;100792.69;;;22.38;29.55
10115;BME280;5097;43.260;27.812;2023-05-14T13:23:51;100769.28;;;22.29;29.85
10115;BME280;5097;43.260;27.812;2023-05-14T13:26:34;100788.72;;;22.52;29.77
10115;BME280;5097;43.260;27.812;2023-05-14T13:29:20;100803.56;;;22.26;30.28
10115;BME280;5097;43.260;27.812;2023-05-14T13:32:04;100801.44;;;22.69;29.40
10115;BME280;5097;43.260;27.812;2023-05-14T13:34:48;100799.88;;;23.34;28.92
10115;BME280;5097;43.260;27.812;2023-05-14T13:37:32;100803.97;;;22.81;29.11
10115;BME280;5097;43.260;27.812;2023-05-14T13:40:16;100804.06;;;23.46;28.17
10115;BME280;5097;43.260;27.812;2023-05-14T13:43:01;100794.03;;;22.81;28.73
10115;BME280;5097;43.260;27.812;2023-05-14T13:45:46;100783.06;;;22.45;30.21
10115;BME280;5097;43.260;27.812;2023-05-14T13:48:30;100788.28;;;23.23;28.58
10115;BME280;5097;43.260;27.812;2023-05-14T13:51:14;100749.19;;;23.00;28.20
10115;BME280;5097;43.260;27.812;2023-05-14T13:53:58;100781.31;;;22.73;28.93
10115;BME280;5097;43.260;27.812;2023-05-14T13:56:42;100779.59;;;22.23;29.47
10115;BME280;5097;43.260;27.812;2023-05-14T13:59:26;100782.72;;;21.49;30.07
10115;BME280;5097;43.260;27.812;2023-05-14T14:02:12;100741.38;;;22.20;29.37
10115;BME280;5097;43.260;27.812;2023-05-14T14:04:56;100762.66;;;22.42;28.67
10115;BME280;5097;43.260;27.812;2023-05-14T14:07:39;100754.78;;;22.79;28.63
10115;BME280;5097;43.260;27.812;2023-05-14T14:10:24;100760.63;;;22.05;29.60
10115;BME280;5097;43.260;27.812;2023-05-14T14:13:07;100752.84;;;22.32;29.21
10115;BME280;5097;43.260;27.812;2023-05-14T14:15:52;100754.84;;;23.16;29.00
10115;BME280;5097;43.260;27.812;2023-05-14T14:18:37;100747.88;;;22.56;29.01
10115;BME280;5097;43.260;27.812;2023-05-14T14:21:21;100747.19;;;23.02;27.47